sensor_id;sensor_type;location;lat;lon;timestamp;P1;durP1;ratioP1;P2;durP2;ratioP2
6757;SDS011;3416;53.074;8.822;2023-10-31T00:01:08;13.38;;;10.82;;
6757;SDS011;3416;53.074;8.822;2023-10-31T00:03:36;15.95;;;14.25;;
6757;SDS011;3416;53.074;8.822;2023-10-31T00:06:05;17.25;;;15.07;;
6757;SDS011;3416;53.074;8.822;2023-10-31T00:08:32;20.67;;;15.13;;
6757;SDS011;3416;53.074;8.822;2023-10-31T00:10:59;15.50;;;13.85;;
6757;SDS011;3416;53.074;8.822;2023-10-31T00:13:26;27.23;;;21.85;;
6757;SDS011;3416;53.074;8.822;2023-10-31T00:15:52;20.38;;;16.85;;
6757;SDS011;3416;53.074;8.822;2023-10-31T00:18:19;24.70;;;18.45;;
6757;SDS011;3416;53.074;8.822;2023-10-31T00:20:47;18.08;;;14.90;;
6757;SDS011;3416;53.074;8.822;2023-10-31T00:23:15;14.55;;;13.05;;
6757;SDS011;3416;53.074;8.822;2023-10-31T00:25:41;26.20;;;17.92;;
6757;SDS011;3416;53.074;8.822;2023-10-31T00:28:08;22.60;;;17.48;;
6757;SDS011;3416;53.074;8.822;2023-10-31T00:30:35;22.05;;;17.05;;
6757;SDS011;3416;53.074;8.822;2023-10-31T00:33:02;27.00;;;21.23;;
6757;SDS011;3416;53.074;8.822;2023-10-31T00:35:29;28.73;;;19.98;;
6757;SDS011;3416;53.074;8.822;2023-10-31T00:37:57;26.10;;;19.45;;
6757;SDS011;3416;53.074;8.822;2023-10-31T00:40:24;21.15;;;17.75;;
6757;SDS011;3416;53.074;8.822;2023-10-31T00:42:51;17.15;;;15.20;;
6757;SDS011;3416;53.074;8.822;2023-10-31T00:45:19;31.45;;;20.48;;
6757;SDS011;3416;53.074;8.822;2023-10-31T00:47:45;14.82;;;13.10;;
6757;SDS011;3416;53.074;8.822;2023-10-31T00:50:12;22.00;;;15.75;;
6757;SDS011;3416;53.074;8.822;2023-10-31T00:52:39;19.10;;;16.17;;
6757;SDS011;3416;53.074;8.822;2023-10-31T00:55:07;25.17;;;19.13;;
6757;SDS011;3416;53.074;8.822;2023-10-31T00:57:34;21.75;;;16.25;;
6757;SDS011;3416;53.074;8.822;2023-10-31T01:00:01;16.02;;;13.73;;
6757;SDS011;3416;53.074;8.822;2023-10-31T01:02:29;20.10;;;16.58;;
6757;SDS011;3416;53.074;8.822;2023-10-31T01:04:56;22.25;;;16.80;;
6757;SDS011;3416;53.074;8.822;2023-10-31T01:07:22;26.85;;;18.45;;
6757;SDS011;3416;53.074;8.822;2023-10-31T01:09:49;24.42;;;17.13;;
6757;SDS011;3416;53.074;8.822;2023-10-31T01:12:17;27.13;;;16.98;;
6757;SDS011;3416;53.074;8.822;2023-10-31T01:14:44;16.48;;;13.70;;
6757;SDS011;3416;53.074;8.822;2023-10-31T01:17:11;16.88;;;12.80;;
6757;SDS011;3416;53.074;8.822;2023-10-31T01:19:38;21.50;;;16.42;;
6757;SDS011;3416;53.074;8.822;2023-10-31T01:22:04;19.67;;;15.95;;
6757;SDS011;3416;53.074;8.822;2023-10-31T01:24:32;17.02;;;13.63;;
6757;SDS011;3416;53.074;8.822;2023-10-31T01:26:59;18.67;;;15.40;;
6757;SDS011;3416;53.074;8.822;2023-10-31T01:29:27;14.60;;;12.32;;
6757;SDS011;3416;53.074;8.822;2023-10-31T01:31:54;19.92;;;14.85;;
6757;SDS011;3416;53.074;8.822;2023-10-31T01:34:20;13.00;;;11.57;;
6757;SDS011;3416;53.074;8.822;2023-10-31T01:36:47;17.33;;;13.75;;
6757;SDS011;3416;53.074;8.822;2023-10-31T01:39:14;20.27;;;15.23;;
6757;SDS011;3416;53.074;8.822;2023-10-31T01:41:41;15.80;;;13.05;;
6757;SDS011;3416;53.074;8.822;2023-10-31T01:44:08;16.98;;;14.15;;
6757;SDS011;3416;53.074;8.822;2023-10-31T01:46:36;20.75;;;15.38;;
6757;SDS011;3416;53.074;8.822;2023-10-31T01:49:03;15.45;;;13.50;;
6757;SDS011;3416;53.074;8.822;2023-10-31T01:51:30;13.07;;;11.65;;
6757;SDS011;3416;53.074;8.822;2023-10-31T01:53:57;15.90;;;14.25;;
6757;SDS011;3416;53.074;8.822;2023-10-31T01:56:24;13.45;;;12.05;;
6757;SDS011;3416;53.074;8.822;2023-10-31T01:58:51;19.45;;;15.50;;
6757;SDS011;3416;53.074;8.822;2023-10-31T02:01:19;19.50;;;15.43;;
6757;SDS011;3416;53.074;8.822;2023-10-31T02:03:47;20.30;;;14.65;;
6757;SDS011;3416;53.074;8.822;2023-10-31T02:06:14;20.58;;;16.27;;
6757;SDS011;3416;53.074;8.822;2023-10-31T02:08:41;15.20;;;12.82;;
6757;SDS011;3416;53.074;8.822;2023-10-31T02:11:08;21.35;;;17.27;;
6757;SDS011;3416;53.074;8.822;2023-10-31T02:13:35;13.32;;;11.93;;
6757;SDS011;3416;53.074;8.822;2023-10-31T02:16:02;22.58;;;17.10;;
6757;SDS011;3416;53.074;8.822;2023-10-31T02:18:30;17.38;;;15.43;;
6757;SDS011;3416;53.074;8.822;2023-10-31T02:20:58;20.67;;;15.65;;
6757;SDS011;3416;53.074;8.822;2023-10-31T02:23:26;27.05;;;17.13;;
6757;SDS011;3416;53.074;8.822;2023-10-31T02:25:53;15.05;;;13.15;;
6757;SDS011;3416;53.074;8.822;2023-10-31T02:28:20;19.90;;;15.63;;
6757;SDS011;3416;53.074;8.822;2023-10-31T02:30:47;20.20;;;17.73;;
6757;SDS011;3416;53.074;8.822;2023-10-31T02:33:13;18.58;;;15.55;;
6757;SDS011;3416;53.074;8.822;2023-10-31T02:35:40;21.30;;;15.90;;
6757;SDS011;3416;53.074;8.822;2023-10-31T02:38:07;18.60;;;15.95;;
6757;SDS011;3416;53.074;8.822;2023-10-31T02:40:35;27.70;;;19.50;;
6757;SDS011;3416;53.074;8.822;2023-10-31T02:43:02;19.15;;;14.57;;
6757;SDS011;3416;53.074;8.822;2023-10-31T02:45:29;29.92;;;19.48;;
6757;SDS011;3416;53.074;8.822;2023-10-31T02:47:56;25.50;;;20.48;;
6757;SDS011;3416;53.074;8.822;2023-10-31T02:50:22;23.85;;;17.75;;
6757;SDS011;3416;53.074;8.822;2023-10-31T02:52:49;19.15;;;16.33;;
6757;SDS011;3416;53.074;8.822;2023-10-31T02:55:16;30.20;;;20.55;;
6757;SDS011;3416;53.074;8.822;2023-10-31T02:57:44;26.77;;;19.45;;
6757;SDS011;3416;53.074;8.822;2023-10-31T03:00:11;20.95;;;16.65;;
6757;SDS011;3416;53.074;8.822;2023-10-31T03:02:39;25.98;;;19.67;;
6757;SDS011;3416;53.074;8.822;2023-10-31T03:05:10;22.17;;;16.92;;
6757;SDS011;3416;53.074;8.822;2023-10-31T03:07:41;25.45;;;19.55;;
6757;SDS011;3416;53.074;8.822;2023-10-31T03:13:31;26.20;;;19.92;;
6757;SDS011;3416;53.074;8.822;2023-10-31T03:15:58;25.98;;;19.60;;
6757;SDS011;3416;53.074;8.822;2023-10-31T03:18:27;21.98;;;19.58;;
6757;SDS011;3416;53.074;8.822;2023-10-31T03:20:54;30.23;;;21.67;;
6757;SDS011;3416;53.074;8.822;2023-10-31T03:23:24;26.55;;;19.17;;
6757;SDS011;3416;53.074;8.822;2023-10-31T03:25:54;29.63;;;21.55;;
6757;SDS011;3416;53.074;8.822;2023-10-31T03:28:21;29.35;;;19.58;;
6757;SDS011;3416;53.074;8.822;2023-10-31T03:30:57;24.40;;;18.55;;
6757;SDS011;3416;53.074;8.822;2023-10-31T03:33:36;28.65;;;20.83;;
6757;SDS011;3416;53.074;8.822;2023-10-31T03:36:03;24.10;;;19.25;;
6757;SDS011;3416;53.074;8.822;2023-10-31T03:38:40;30.80;;;22.15;;
6757;SDS011;3416;53.074;8.822;2023-10-31T03:41:11;28.55;;;20.67;;
6757;SDS011;3416;53.074;8.822;2023-10-31T03:43:39;37.65;;;24.40;;
6757;SDS011;3416;53.074;8.822;2023-10-31T03:46:07;40.22;;;26.40;;
6757;SDS011;3416;53.074;8.822;2023-10-31T03:48:34;31.60;;;22.17;;
6757;SDS011;3416;53.074;8.822;2023-10-31T03:51:03;31.45;;;21.75;;
6757;SDS011;3416;53.074;8.822;2023-10-31T03:53:30;26.65;;;19.95;;
6757;SDS011;3416;53.074;8.822;2023-10-31T03:55:58;32.45;;;23.35;;
6757;SDS011;3416;53.074;8.822;2023-10-31T03:58:25;31.83;;;21.08;;
6757;SDS011;3416;53.074;8.822;2023-10-31T04:00:52;30.13;;;19.40;;
6757;SDS011;3416;53.074;8.822;2023-10-31T04:03:20;24.05;;;18.30;;
6757;SDS011;3416;53.074;8.822;2023-10-31T04:05:47;22.13;;;16.73;;
6757;SDS011;3416;53.074;8.822;2023-10-31T04:08:14;30.98;;;21.40;;
6757;SDS011;3416;53.074;8.822;2023-10-31T04:10:41;20.00;;;15.98;;
6757;SDS011;3416;53.074;8.822;2023-10-31T04:13:08;21.90;;;17.98;;
6757;SDS011;3416;53.074;8.822;2023-10-31T04:15:34;28.45;;;20.75;;
6757;SDS011;3416;53.074;8.822;2023-10-31T04:18:02;24.02;;;16.88;;
6757;SDS011;3416;53.074;8.822;2023-10-31T04:20:30;15.65;;;13.45;;
6757;SDS011;3416;53.074;8.822;2023-10-31T04:22:57;21.85;;;16.92;;
6757;SDS011;3416;53.074;8.822;2023-10-31T04:25:24;19.58;;;14.63;;
6757;SDS011;3416;53.074;8.822;2023-10-31T04:27:52;15.02;;;12.40;;
6757;SDS011;3416;53.074;8.822;2023-10-31T04:30:18;20.13;;;16.30;;
6757;SDS011;3416;53.074;8.822;2023-10-31T04:32:46;20.02;;;16.13;;
6757;SDS011;3416;53.074;8.822;2023-10-31T04:35:13;24.15;;;17.98;;
6757;SDS011;3416;53.074;8.822;2023-10-31T04:37:41;18.83;;;14.40;;
6757;SDS011;3416;53.074;8.822;2023-10-31T04:40:09;17.38;;;13.50;;
6757;SDS011;3416;53.074;8.822;2023-10-31T04:42:38;19.35;;;15.15;;
6757;SDS011;3416;53.074;8.822;2023-10-31T04:45:06;18.40;;;15.10;;
6757;SDS011;3416;53.074;8.822;2023-10-31T04:47:34;18.85;;;15.02;;
6757;SDS011;3416;53.074;8.822;2023-10-31T04:50:00;24.20;;;19.27;;
6757;SDS011;3416;53.074;8.822;2023-10-31T04:52:27;20.40;;;16.23;;
6757;SDS011;3416;53.074;8.822;2023-10-31T04:54:55;28.70;;;20.02;;
6757;SDS011;3416;53.074;8.822;2023-10-31T04:57:22;24.92;;;19.27;;
6757;SDS011;3416;53.074;8.822;2023-10-31T04:59:49;26.33;;;19.65;;
6757;SDS011;3416;53.074;8.822;2023-10-31T05:02:17;34.30;;;21.25;;
6757;SDS011;3416;53.074;8.822;2023-10-31T05:04:44;30.38;;;22.05;;
6757;SDS011;3416;53.074;8.822;2023-10-31T05:07:11;26.23;;;21.02;;
6757;SDS011;3416;53.074;8.822;2023-10-31T05:09:38;23.98;;;19.75;;
6757;SDS011;3416;53.074;8.822;2023-10-31T05:12:08;25.77;;;20.77;;
6757;SDS011;3416;53.074;8.822;2023-10-31T05:14:35;27.30;;;22.50;;
6757;SDS011;3416;53.074;8.822;2023-10-31T05:17:02;27.08;;;23.13;;
6757;SDS011;3416;53.074;8.822;2023-10-31T05:19:29;22.70;;;20.30;;
6757;SDS011;3416;53.074;8.822;2023-10-31T05:21:56;23.95;;;18.40;;
6757;SDS011;3416;53.074;8.822;2023-10-31T05:24:23;20.05;;;17.27;;
6757;SDS011;3416;53.074;8.822;2023-10-31T05:26:49;19.95;;;17.83;;
6757;SDS011;3416;53.074;8.822;2023-10-31T05:29:18;19.92;;;17.80;;
6757;SDS011;3416;53.074;8.822;2023-10-31T05:31:45;22.88;;;18.38;;
6757;SDS011;3416;53.074;8.822;2023-10-31T05:34:12;20.00;;;16.48;;
6757;SDS011;3416;53.074;8.822;2023-10-31T05:36:39;24.70;;;20.05;;
6757;SDS011;3416;53.074;8.822;2023-10-31T05:39:05;19.15;;;17.00;;
6757;SDS011;3416;53.074;8.822;2023-10-31T05:41:33;20.75;;;17.17;;
6757;SDS011;3416;53.074;8.822;2023-10-31T05:44:00;20.42;;;15.20;;
6757;SDS011;3416;53.074;8.822;2023-10-31T05:46:28;22.25;;;16.00;;
6757;SDS011;3416;53.074;8.822;2023-10-31T05:48:55;13.07;;;11.65;;
6757;SDS011;3416;53.074;8.822;2023-10-31T05:51:22;9.77;;;8.35;;
6757;SDS011;3416;53.074;8.822;2023-10-31T05:53:50;8.50;;;5.65;;
6757;SDS011;3416;53.074;8.822;2023-10-31T05:56:17;5.18;;;3.35;;
6757;SDS011;3416;53.074;8.822;2023-10-31T05:58:44;2.08;;;1.88;;
6757;SDS011;3416;53.074;8.822;2023-10-31T06:01:11;2.40;;;2.20;;
6757;SDS011;3416;53.074;8.822;2023-10-31T06:03:39;2.20;;;2.00;;
6757;SDS011;3416;53.074;8.822;2023-10-31T06:06:08;1.40;;;1.30;;
6757;SDS011;3416;53.074;8.822;2023-10-31T06:08:34;1.30;;;1.10;;
6757;SDS011;3416;53.074;8.822;2023-10-31T06:11:01;3.15;;;2.60;;
6757;SDS011;3416;53.074;8.822;2023-10-31T06:13:29;9.05;;;3.47;;
6757;SDS011;3416;53.074;8.822;2023-10-31T06:15:56;5.60;;;4.22;;
6757;SDS011;3416;53.074;8.822;2023-10-31T06:18:24;2.63;;;2.10;;
6757;SDS011;3416;53.074;8.822;2023-10-31T06:20:53;2.35;;;1.92;;
6757;SDS011;3416;53.074;8.822;2023-10-31T06:23:19;1.40;;;1.30;;
6757;SDS011;3416;53.074;8.822;2023-10-31T06:25:46;2.50;;;1.35;;
6757;SDS011;3416;53.074;8.822;2023-10-31T06:28:13;1.60;;;1.50;;
6757;SDS011;3416;53.074;8.822;2023-10-31T06:30:40;2.28;;;2.00;;
6757;SDS011;3416;53.074;8.822;2023-10-31T06:33:07;1.73;;;1.63;;
6757;SDS011;3416;53.074;8.822;2023-10-31T06:35:35;2.58;;;1.75;;
6757;SDS011;3416;53.074;8.822;2023-10-31T06:38:03;2.30;;;2.10;;
6757;SDS011;3416;53.074;8.822;2023-10-31T06:40:30;1.90;;;1.80;;
6757;SDS011;3416;53.074;8.822;2023-10-31T06:42:57;3.40;;;2.45;;
6757;SDS011;3416;53.074;8.822;2023-10-31T06:45:25;1.88;;;1.75;;
6757;SDS011;3416;53.074;8.822;2023-10-31T06:47:51;2.80;;;1.73;;
6757;SDS011;3416;53.074;8.822;2023-10-31T06:50:18;4.55;;;2.05;;
6757;SDS011;3416;53.074;8.822;2023-10-31T06:52:45;2.00;;;1.20;;
6757;SDS011;3416;53.074;8.822;2023-10-31T06:55:13;1.20;;;1.10;;
6757;SDS011;3416;53.074;8.822;2023-10-31T06:57:40;6.63;;;1.50;;
6757;SDS011;3416;53.074;8.822;2023-10-31T07:00:08;4.35;;;1.42;;
6757;SDS011;3416;53.074;8.822;2023-10-31T07:02:36;1.90;;;1.40;;
6757;SDS011;3416;53.074;8.822;2023-10-31T07:05:03;3.05;;;1.55;;
6757;SDS011;3416;53.074;8.822;2023-10-31T07:07:31;1.42;;;1.10;;
6757;SDS011;3416;53.074;8.822;2023-10-31T07:09:58;1.35;;;1.15;;
6757;SDS011;3416;53.074;8.822;2023-10-31T07:12:26;2.92;;;1.25;;
6757;SDS011;3416;53.074;8.822;2023-10-31T07:14:53;1.30;;;1.00;;
6757;SDS011;3416;53.074;8.822;2023-10-31T07:17:20;3.25;;;1.65;;
6757;SDS011;3416;53.074;8.822;2023-10-31T07:19:46;3.33;;;1.20;;
6757;SDS011;3416;53.074;8.822;2023-10-31T07:22:13;1.65;;;1.00;;
6757;SDS011;3416;53.074;8.822;2023-10-31T07:24:40;2.38;;;1.17;;
6757;SDS011;3416;53.074;8.822;2023-10-31T07:27:07;1.50;;;1.30;;
6757;SDS011;3416;53.074;8.822;2023-10-31T07:29:36;1.63;;;1.05;;
6757;SDS011;3416;53.074;8.822;2023-10-31T07:32:05;2.08;;;1.40;;
6757;SDS011;3416;53.074;8.822;2023-10-31T07:34:32;4.60;;;1.33;;
6757;SDS011;3416;53.074;8.822;2023-10-31T07:36:59;3.13;;;1.60;;
6757;SDS011;3416;53.074;8.822;2023-10-31T07:39:26;2.17;;;1.48;;
6757;SDS011;3416;53.074;8.822;2023-10-31T07:41:53;1.95;;;1.80;;
6757;SDS011;3416;53.074;8.822;2023-10-31T07:44:20;1.92;;;1.40;;
6757;SDS011;3416;53.074;8.822;2023-10-31T07:46:48;1.63;;;1.10;;
6757;SDS011;3416;53.074;8.822;2023-10-31T07:49:15;2.60;;;1.10;;
6757;SDS011;3416;53.074;8.822;2023-10-31T07:51:41;1.50;;;1.00;;
6757;SDS011;3416;53.074;8.822;2023-10-31T07:54:08;4.72;;;3.22;;
6757;SDS011;3416;53.074;8.822;2023-10-31T07:56:35;1.83;;;1.20;;
6757;SDS011;3416;53.074;8.822;2023-10-31T07:59:03;3.58;;;1.70;;
6757;SDS011;3416;53.074;8.822;2023-10-31T08:01:30;2.15;;;1.05;;
6757;SDS011;3416;53.074;8.822;2023-10-31T08:04:00;3.22;;;1.40;;
6757;SDS011;3416;53.074;8.822;2023-10-31T08:06:29;1.13;;;0.90;;
6757;SDS011;3416;53.074;8.822;2023-10-31T08:09:11;2.17;;;0.93;;
6757;SDS011;3416;53.074;8.822;2023-10-31T08:12:27;1.85;;;0.80;;
6757;SDS011;3416;53.074;8.822;2023-10-31T08:15:24;1.20;;;0.80;;
6757;SDS011;3416;53.074;8.822;2023-10-31T08:18:23;1.83;;;1.00;;
6757;SDS011;3416;53.074;8.822;2023-10-31T08:21:16;1.52;;;0.70;;
6757;SDS011;3416;53.074;8.822;2023-10-31T08:24:13;1.20;;;0.80;;
6757;SDS011;3416;53.074;8.822;2023-10-31T08:27:03;1.45;;;1.17;;
6757;SDS011;3416;53.074;8.822;2023-10-31T08:29:33;1.20;;;1.10;;
6757;SDS011;3416;53.074;8.822;2023-10-31T08:32:09;2.20;;;1.08;;
6757;SDS011;3416;53.074;8.822;2023-10-31T08:37:27;1.10;;;1.00;;
6757;SDS011;3416;53.074;8.822;2023-10-31T08:39:54;1.08;;;0.95;;
6757;SDS011;3416;53.074;8.822;2023-10-31T08:42:21;1.00;;;0.80;;
6757;SDS011;3416;53.074;8.822;2023-10-31T08:44:48;2.60;;;1.48;;
6757;SDS011;3416;53.074;8.822;2023-10-31T08:47:15;2.28;;;1.20;;
6757;SDS011;3416;53.074;8.822;2023-10-31T08:49:43;2.15;;;1.00;;
6757;SDS011;3416;53.074;8.822;2023-10-31T08:52:11;0.80;;;0.80;;
6757;SDS011;3416;53.074;8.822;2023-10-31T08:54:39;1.35;;;1.13;;
6757;SDS011;3416;53.074;8.822;2023-10-31T08:57:06;1.08;;;0.98;;
6757;SDS011;3416;53.074;8.822;2023-10-31T08:59:33;1.05;;;0.93;;
6757;SDS011;3416;53.074;8.822;2023-10-31T09:02:01;0.85;;;0.80;;
6757;SDS011;3416;53.074;8.822;2023-10-31T09:04:27;1.77;;;1.05;;
6757;SDS011;3416;53.074;8.822;2023-10-31T09:06:54;1.08;;;0.80;;
6757;SDS011;3416;53.074;8.822;2023-10-31T09:09:21;1.13;;;1.00;;
6757;SDS011;3416;53.074;8.822;2023-10-31T09:11:50;1.73;;;1.02;;
6757;SDS011;3416;53.074;8.822;2023-10-31T09:14:17;2.28;;;1.23;;
6757;SDS011;3416;53.074;8.822;2023-10-31T09:16:44;1.88;;;0.98;;
6757;SDS011;3416;53.074;8.822;2023-10-31T09:19:11;1.73;;;1.40;;
6757;SDS011;3416;53.074;8.822;2023-10-31T09:21:38;1.70;;;1.60;;
6757;SDS011;3416;53.074;8.822;2023-10-31T09:24:06;1.63;;;1.13;;
6757;SDS011;3416;53.074;8.822;2023-10-31T09:26:34;2.58;;;1.50;;
6757;SDS011;3416;53.074;8.822;2023-10-31T09:29:04;1.60;;;1.50;;
6757;SDS011;3416;53.074;8.822;2023-10-31T09:31:31;2.80;;;1.60;;
6757;SDS011;3416;53.074;8.822;2023-10-31T09:33:58;4.43;;;1.65;;
6757;SDS011;3416;53.074;8.822;2023-10-31T09:36:26;1.73;;;1.15;;
6757;SDS011;3416;53.074;8.822;2023-10-31T09:38:53;1.65;;;1.55;;
6757;SDS011;3416;53.074;8.822;2023-10-31T09:41:20;1.70;;;1.40;;
6757;SDS011;3416;53.074;8.822;2023-10-31T09:43:47;3.70;;;1.75;;
6757;SDS011;3416;53.074;8.822;2023-10-31T09:46:17;2.28;;;1.90;;
6757;SDS011;3416;53.074;8.822;2023-10-31T09:48:44;2.65;;;2.45;;
6757;SDS011;3416;53.074;8.822;2023-10-31T09:51:11;1.83;;;1.55;;
6757;SDS011;3416;53.074;8.822;2023-10-31T09:53:39;5.43;;;2.80;;
6757;SDS011;3416;53.074;8.822;2023-10-31T09:56:08;5.60;;;1.83;;
6757;SDS011;3416;53.074;8.822;2023-10-31T09:58:36;1.80;;;1.40;;
6757;SDS011;3416;53.074;8.822;2023-10-31T10:01:04;2.47;;;2.10;;
6757;SDS011;3416;53.074;8.822;2023-10-31T10:03:33;3.17;;;2.50;;
6757;SDS011;3416;53.074;8.822;2023-10-31T10:06:01;2.65;;;1.83;;
6757;SDS011;3416;53.074;8.822;2023-10-31T10:08:30;2.42;;;2.05;;
6757;SDS011;3416;53.074;8.822;2023-10-31T10:10:57;3.83;;;2.53;;
6757;SDS011;3416;53.074;8.822;2023-10-31T10:13:28;9.02;;;2.80;;
6757;SDS011;3416;53.074;8.822;2023-10-31T10:15:59;4.38;;;3.28;;
6757;SDS011;3416;53.074;8.822;2023-10-31T10:18:27;4.00;;;3.40;;
6757;SDS011;3416;53.074;8.822;2023-10-31T10:20:56;6.82;;;5.82;;
6757;SDS011;3416;53.074;8.822;2023-10-31T10:23:24;3.92;;;3.63;;
6757;SDS011;3416;53.074;8.822;2023-10-31T10:25:51;6.75;;;4.18;;
6757;SDS011;3416;53.074;8.822;2023-10-31T10:28:20;8.57;;;4.13;;
6757;SDS011;3416;53.074;8.822;2023-10-31T10:30:47;3.15;;;2.85;;
6757;SDS011;3416;53.074;8.822;2023-10-31T10:33:15;3.20;;;2.90;;
6757;SDS011;3416;53.074;8.822;2023-10-31T10:35:44;4.32;;;3.50;;
6757;SDS011;3416;53.074;8.822;2023-10-31T10:38:13;3.70;;;2.97;;
6757;SDS011;3416;53.074;8.822;2023-10-31T10:40:41;6.75;;;3.35;;
6757;SDS011;3416;53.074;8.822;2023-10-31T10:43:11;3.80;;;3.00;;
6757;SDS011;3416;53.074;8.822;2023-10-31T10:45:41;3.35;;;2.45;;
6757;SDS011;3416;53.074;8.822;2023-10-31T10:48:11;3.35;;;2.65;;
6757;SDS011;3416;53.074;8.822;2023-10-31T10:50:42;3.13;;;2.70;;
6757;SDS011;3416;53.074;8.822;2023-10-31T10:53:16;2.85;;;2.25;;
6757;SDS011;3416;53.074;8.822;2023-10-31T10:55:51;4.57;;;3.97;;
6757;SDS011;3416;53.074;8.822;2023-10-31T10:58:22;4.20;;;2.70;;
6757;SDS011;3416;53.074;8.822;2023-10-31T11:00:54;2.30;;;2.20;;
6757;SDS011;3416;53.074;8.822;2023-10-31T11:03:23;2.75;;;2.05;;
6757;SDS011;3416;53.074;8.822;2023-10-31T11:05:53;2.85;;;2.00;;
6757;SDS011;3416;53.074;8.822;2023-10-31T11:08:23;2.85;;;2.65;;
6757;SDS011;3416;53.074;8.822;2023-10-31T11:10:51;9.90;;;2.92;;
6757;SDS011;3416;53.074;8.822;2023-10-31T11:13:22;2.70;;;2.50;;
6757;SDS011;3416;53.074;8.822;2023-10-31T11:15:51;2.83;;;2.35;;
6757;SDS011;3416;53.074;8.822;2023-10-31T11:18:21;3.38;;;2.60;;
6757;SDS011;3416;53.074;8.822;2023-10-31T11:20:49;3.03;;;2.70;;
6757;SDS011;3416;53.074;8.822;2023-10-31T11:23:16;8.07;;;3.05;;
6757;SDS011;3416;53.074;8.822;2023-10-31T11:25:45;4.90;;;4.15;;
6757;SDS011;3416;53.074;8.822;2023-10-31T11:28:17;3.13;;;2.83;;
6757;SDS011;3416;53.074;8.822;2023-10-31T11:30:45;3.15;;;2.85;;
6757;SDS011;3416;53.074;8.822;2023-10-31T11:33:14;6.80;;;3.42;;
6757;SDS011;3416;53.074;8.822;2023-10-31T11:35:42;2.53;;;2.28;;
6757;SDS011;3416;53.074;8.822;2023-10-31T11:38:10;8.10;;;2.83;;
6757;SDS011;3416;53.074;8.822;2023-10-31T11:40:46;4.20;;;3.08;;
6757;SDS011;3416;53.074;8.822;2023-10-31T11:43:31;2.83;;;2.42;;
6757;SDS011;3416;53.074;8.822;2023-10-31T11:46:02;4.05;;;3.55;;
6757;SDS011;3416;53.074;8.822;2023-10-31T11:48:44;2.25;;;2.05;;
6757;SDS011;3416;53.074;8.822;2023-10-31T11:51:12;3.60;;;3.17;;
6757;SDS011;3416;53.074;8.822;2023-10-31T11:53:40;5.88;;;2.63;;
6757;SDS011;3416;53.074;8.822;2023-10-31T11:56:10;5.13;;;3.45;;
6757;SDS011;3416;53.074;8.822;2023-10-31T11:58:37;7.25;;;3.78;;
6757;SDS011;3416;53.074;8.822;2023-10-31T12:01:05;4.57;;;2.58;;
6757;SDS011;3416;53.074;8.822;2023-10-31T12:03:37;3.75;;;3.38;;
6757;SDS011;3416;53.074;8.822;2023-10-31T12:06:04;6.78;;;3.70;;
6757;SDS011;3416;53.074;8.822;2023-10-31T12:08:33;5.28;;;4.35;;
6757;SDS011;3416;53.074;8.822;2023-10-31T12:11:05;11.00;;;4.32;;
6757;SDS011;3416;53.074;8.822;2023-10-31T12:13:35;5.30;;;3.90;;
6757;SDS011;3416;53.074;8.822;2023-10-31T12:16:03;4.35;;;3.53;;
6757;SDS011;3416;53.074;8.822;2023-10-31T12:18:32;7.95;;;3.80;;
6757;SDS011;3416;53.074;8.822;2023-10-31T12:20:59;7.45;;;5.13;;
6757;SDS011;3416;53.074;8.822;2023-10-31T12:23:27;3.90;;;3.50;;
6757;SDS011;3416;53.074;8.822;2023-10-31T12:25:55;4.82;;;3.97;;
6757;SDS011;3416;53.074;8.822;2023-10-31T12:28:23;6.00;;;4.63;;
6757;SDS011;3416;53.074;8.822;2023-10-31T12:30:52;6.68;;;4.95;;
6757;SDS011;3416;53.074;8.822;2023-10-31T12:33:21;5.55;;;3.58;;
6757;SDS011;3416;53.074;8.822;2023-10-31T12:35:50;8.93;;;5.03;;
6757;SDS011;3416;53.074;8.822;2023-10-31T12:38:18;5.57;;;4.45;;
6757;SDS011;3416;53.074;8.822;2023-10-31T12:40:46;6.60;;;4.00;;
6757;SDS011;3416;53.074;8.822;2023-10-31T12:43:14;5.15;;;2.20;;
6757;SDS011;3416;53.074;8.822;2023-10-31T12:45:42;3.88;;;1.88;;
6757;SDS011;3416;53.074;8.822;2023-10-31T12:48:10;3.70;;;1.85;;
6757;SDS011;3416;53.074;8.822;2023-10-31T12:50:38;2.35;;;0.90;;
6757;SDS011;3416;53.074;8.822;2023-10-31T12:53:05;4.60;;;1.65;;
6757;SDS011;3416;53.074;8.822;2023-10-31T12:55:37;3.65;;;1.10;;
6757;SDS011;3416;53.074;8.822;2023-10-31T12:58:05;1.88;;;1.23;;
6757;SDS011;3416;53.074;8.822;2023-10-31T13:00:35;2.45;;;1.00;;
6757;SDS011;3416;53.074;8.822;2023-10-31T13:03:04;2.63;;;1.23;;
6757;SDS011;3416;53.074;8.822;2023-10-31T13:05:33;2.58;;;1.05;;
6757;SDS011;3416;53.074;8.822;2023-10-31T13:08:01;3.35;;;1.73;;
6757;SDS011;3416;53.074;8.822;2023-10-31T13:10:29;2.03;;;1.17;;
6757;SDS011;3416;53.074;8.822;2023-10-31T13:12:57;2.13;;;1.30;;
6757;SDS011;3416;53.074;8.822;2023-10-31T13:15:24;2.17;;;1.27;;
6757;SDS011;3416;53.074;8.822;2023-10-31T13:17:51;6.28;;;1.73;;
6757;SDS011;3416;53.074;8.822;2023-10-31T13:20:19;2.45;;;1.17;;
6757;SDS011;3416;53.074;8.822;2023-10-31T13:22:48;3.30;;;0.90;;
6757;SDS011;3416;53.074;8.822;2023-10-31T13:25:16;3.10;;;1.23;;
6757;SDS011;3416;53.074;8.822;2023-10-31T13:27:43;2.15;;;1.00;;
6757;SDS011;3416;53.074;8.822;2023-10-31T13:30:15;2.03;;;1.33;;
6757;SDS011;3416;53.074;8.822;2023-10-31T13:32:43;3.60;;;1.27;;
6757;SDS011;3416;53.074;8.822;2023-10-31T13:35:11;2.25;;;0.90;;
6757;SDS011;3416;53.074;8.822;2023-10-31T13:37:40;1.38;;;1.05;;
6757;SDS011;3416;53.074;8.822;2023-10-31T13:40:08;2.22;;;1.45;;
6757;SDS011;3416;53.074;8.822;2023-10-31T13:42:36;1.50;;;1.40;;
6757;SDS011;3416;53.074;8.822;2023-10-31T13:45:03;4.65;;;1.13;;
6757;SDS011;3416;53.074;8.822;2023-10-31T13:47:30;2.70;;;1.70;;
6757;SDS011;3416;53.074;8.822;2023-10-31T13:49:58;6.38;;;1.45;;
6757;SDS011;3416;53.074;8.822;2023-10-31T13:52:25;2.70;;;1.33;;
6757;SDS011;3416;53.074;8.822;2023-10-31T13:54:52;2.28;;;1.40;;
6757;SDS011;3416;53.074;8.822;2023-10-31T13:57:20;1.73;;;1.45;;
6757;SDS011;3416;53.074;8.822;2023-10-31T13:59:47;0.90;;;0.80;;
6757;SDS011;3416;53.074;8.822;2023-10-31T14:02:15;2.15;;;1.25;;
6757;SDS011;3416;53.074;8.822;2023-10-31T14:04:42;1.73;;;1.17;;
6757;SDS011;3416;53.074;8.822;2023-10-31T14:07:09;1.95;;;1.50;;
6757;SDS011;3416;53.074;8.822;2023-10-31T14:09:39;2.80;;;1.35;;
6757;SDS011;3416;53.074;8.822;2023-10-31T14:12:06;4.53;;;1.35;;
6757;SDS011;3416;53.074;8.822;2023-10-31T14:14:34;2.13;;;1.50;;
6757;SDS011;3416;53.074;8.822;2023-10-31T14:17:01;5.55;;;2.20;;
6757;SDS011;3416;53.074;8.822;2023-10-31T14:19:31;1.80;;;1.00;;
6757;SDS011;3416;53.074;8.822;2023-10-31T14:21:58;2.10;;;1.00;;
6757;SDS011;3416;53.074;8.822;2023-10-31T14:24:26;2.30;;;1.30;;
6757;SDS011;3416;53.074;8.822;2023-10-31T14:26:53;3.03;;;1.35;;
6757;SDS011;3416;53.074;8.822;2023-10-31T14:29:20;2.22;;;1.63;;
6757;SDS011;3416;53.074;8.822;2023-10-31T14:31:48;3.22;;;1.92;;
6757;SDS011;3416;53.074;8.822;2023-10-31T14:34:15;3.45;;;1.58;;
6757;SDS011;3416;53.074;8.822;2023-10-31T14:36:42;1.90;;;1.27;;
6757;SDS011;3416;53.074;8.822;2023-10-31T14:39:09;3.45;;;1.42;;
6757;SDS011;3416;53.074;8.822;2023-10-31T14:41:36;2.67;;;2.00;;
6757;SDS011;3416;53.074;8.822;2023-10-31T14:44:03;2.15;;;1.55;;
6757;SDS011;3416;53.074;8.822;2023-10-31T14:46:33;2.20;;;1.40;;
6757;SDS011;3416;53.074;8.822;2023-10-31T14:49:01;4.55;;;2.25;;
6757;SDS011;3416;53.074;8.822;2023-10-31T14:51:28;4.15;;;1.88;;
6757;SDS011;3416;53.074;8.822;2023-10-31T14:53:55;3.30;;;1.63;;
6757;SDS011;3416;53.074;8.822;2023-10-31T14:56:23;3.30;;;1.98;;
6757;SDS011;3416;53.074;8.822;2023-10-31T14:58:51;4.93;;;1.88;;
6757;SDS011;3416;53.074;8.822;2023-10-31T15:01:18;4.10;;;2.05;;
6757;SDS011;3416;53.074;8.822;2023-10-31T15:03:45;1.95;;;1.75;;
6757;SDS011;3416;53.074;8.822;2023-10-31T15:26:34;5.75;;;3.17;;
6757;SDS011;3416;53.074;8.822;2023-10-31T15:29:04;6.32;;;3.20;;
6757;SDS011;3416;53.074;8.822;2023-10-31T15:31:32;7.90;;;3.17;;
6757;SDS011;3416;53.074;8.822;2023-10-31T15:34:01;4.32;;;1.65;;
6757;SDS011;3416;53.074;8.822;2023-10-31T15:36:28;4.25;;;2.65;;
6757;SDS011;3416;53.074;8.822;2023-10-31T15:38:55;5.47;;;3.33;;